Time;durP1;ratioP1;P1;durP2;ratioP2;P2;SDS_P1;SDS_P2;PMS_P1;PMS_P2;Temp;Humidity;BMP_temperature;BMP_pressure;BME280_temperature;BME280_humidity;BME280_pressure;Samples;Min_cycle;Max_cycle;Signal;HPM_P1;HPM_P2
2022/04/20 00:02:12;;;;;;;3.12;1.25;;;20.40;37.60;;;;;;1908110;75;21208;-64
2022/04/20 00:04:39;;;;;;;2.52;1.70;;;20.40;37.00;;;;;;1880230;75;21121;-64
2022/04/20 00:07:06;;;;;;;5.12;1.40;;;20.50;37.40;;;;;;1875924;76;21479;-63
2022/04/20 00:09:34;;;;;;;1.30;1.20;;;20.50;37.10;;;;;;1874251;76;21126;-63
2022/04/20 00:12:01;;;;;;;2.98;1.55;;;20.40;37.40;;;;;;1875363;76;22257;-63
2022/04/20 00:14:28;;;;;;;1.98;1.67;;;20.40;37.50;;;;;;1876253;76;21133;-63
2022/04/20 00:16:56;;;;;;;3.15;1.55;;;20.40;37.50;;;;;;1876188;76;21546;-63
2022/04/20 00:19:23;;;;;;;1.98;1.50;;;20.40;37.60;;;;;;1875731;76;21133;-63
2022/04/20 00:21:50;;;;;;;4.75;1.90;;;20.30;37.60;;;;;;1876352;76;21447;-63
2022/04/20 00:24:18;;;;;;;3.62;2.08;;;20.40;37.60;;;;;;1876320;76;21130;-62
2022/04/20 00:26:45;;;;;;;5.53;1.80;;;20.40;37.80;;;;;;1876278;76;21107;-63
2022/04/20 00:29:12;;;;;;;2.95;1.70;;;20.40;38.00;;;;;;1876074;76;21204;-63
2022/04/20 00:31:39;;;;;;;3.05;1.90;;;20.30;37.30;;;;;;1872513;76;21135;-63
2022/04/20 00:34:07;;;;;;;3.98;1.70;;;20.40;37.30;;;;;;1866662;77;21231;-62
2022/04/20 00:36:34;;;;;;;4.42;1.67;;;20.40;37.30;;;;;;1867123;77;21048;-63
2022/04/20 00:39:01;;;;;;;3.47;1.42;;;20.30;37.20;;;;;;1867247;77;21188;-62
2022/04/20 00:41:29;;;;;;;1.85;1.50;;;20.40;37.10;;;;;;1866979;77;21169;-63
2022/04/20 00:43:56;;;;;;;2.47;1.87;;;20.30;37.30;;;;;;1867061;77;21110;-63
2022/04/20 00:46:25;;;;;;;6.22;1.57;;;20.30;37.30;;;;;;1866659;77;21200;-63
2022/04/20 00:48:53;;;;;;;2.37;1.70;;;20.30;37.20;;;;;;1866372;77;21115;-63
2022/04/20 00:51:20;;;;;;;5.25;2.35;;;20.30;37.00;;;;;;1866571;76;21118;-63
2022/04/20 00:53:48;;;;;;;2.42;1.55;;;20.30;37.00;;;;;;1866785;77;21139;-63
2022/04/20 00:56:15;;;;;;;1.90;1.60;;;20.30;37.00;;;;;;1866936;77;21209;-63
2022/04/20 00:58:42;;;;;;;2.25;1.57;;;20.30;37.00;;;;;;1866820;77;21177;-63
2022/04/20 01:01:10;;;;;;;2.85;1.20;;;20.30;36.90;;;;;;1866403;77;21118;-63
2022/04/20 01:03:38;;;;;;;2.60;1.40;;;20.30;36.90;;;;;;1866783;77;21204;-63
2022/04/20 01:06:07;;;;;;;2.60;1.80;;;20.30;36.90;;;;;;1866741;77;21429;-62
2022/04/20 01:08:34;;;;;;;3.65;1.52;;;20.30;36.70;;;;;;1866825;77;21203;-62
2022/04/20 01:11:03;;;;;;;4.95;1.65;;;20.30;37.30;;;;;;1866833;77;21095;-64
2022/04/20 01:13:30;;;;;;;2.65;1.65;;;20.30;36.70;;;;;;1866645;77;21134;-63
2022/04/20 01:15:57;;;;;;;2.87;1.65;;;20.30;36.60;;;;;;1866854;77;21079;-62
2022/04/20 01:18:25;;;;;;;3.05;1.80;;;20.20;36.60;;;;;;1866758;77;21119;-63
2022/04/20 01:20:52;;;;;;;2.70;2.15;;;20.30;36.60;;;;;;1866597;77;21079;-63
2022/04/20 01:23:19;;;;;;;2.05;1.82;;;20.30;36.60;;;;;;1866708;77;21232;-63
2022/04/20 01:25:47;;;;;;;2.75;1.70;;;20.30;36.60;;;;;;1866827;77;21071;-64
2022/04/20 01:28:15;;;;;;;4.70;1.98;;;20.30;36.60;;;;;;1866999;77;21597;-63
2022/04/20 01:30:42;;;;;;;3.05;1.80;;;20.20;36.50;;;;;;1867049;77;21584;-63
2022/04/20 01:33:10;;;;;;;2.55;1.60;;;20.30;36.60;;;;;;1886429;76;21216;-63
2022/04/20 01:35:37;;;;;;;2.47;1.92;;;20.20;36.60;;;;;;1892091;76;22069;-63
2022/04/20 01:38:04;;;;;;;2.42;1.60;;;20.20;36.50;;;;;;1892548;76;21175;-64
2022/04/20 01:40:33;;;;;;;1.47;1.37;;;20.20;36.50;;;;;;1892274;76;21110;-63
2022/04/20 01:43:00;;;;;;;3.15;1.65;;;20.20;36.50;;;;;;1892416;76;21223;-63
2022/04/20 01:45:27;;;;;;;1.72;1.50;;;20.20;36.40;;;;;;1892688;76;21199;-63
2022/04/20 01:47:54;;;;;;;2.42;1.87;;;20.20;36.30;;;;;;1892299;76;21095;-62
2022/04/20 01:50:22;;;;;;;1.82;1.40;;;20.20;36.30;;;;;;1892037;76;21110;-63
2022/04/20 01:52:49;;;;;;;3.05;1.87;;;20.20;36.30;;;;;;1892463;76;21192;-63
2022/04/20 01:55:17;;;;;;;2.47;1.72;;;20.20;36.20;;;;;;1892693;76;21167;-63
2022/04/20 01:57:45;;;;;;;2.50;1.80;;;20.20;36.20;;;;;;1892792;76;21094;-63
2022/04/20 02:00:13;;;;;;;3.87;1.60;;;20.20;36.20;;;;;;1892459;76;21604;-63
2022/04/20 02:02:40;;;;;;;3.15;2.00;;;20.20;36.30;;;;;;1892447;76;21145;-63
2022/04/20 02:05:09;;;;;;;2.90;1.70;;;20.20;36.20;;;;;;1892309;76;21447;-64
2022/04/20 02:07:37;;;;;;;2.33;1.85;;;20.20;36.30;;;;;;1892124;76;21183;-63
2022/04/20 02:10:05;;;;;;;1.92;1.57;;;20.20;36.10;;;;;;1892428;76;21171;-63
2022/04/20 02:12:33;;;;;;;4.37;2.70;;;20.20;36.20;;;;;;1892027;76;21203;-63
2022/04/20 02:15:00;;;;;;;2.35;1.90;;;20.20;36.30;;;;;;1892296;76;21118;-63
2022/04/20 02:17:28;;;;;;;2.22;1.77;;;20.20;36.30;;;;;;1892601;76;21094;-65
2022/04/20 02:19:58;;;;;;;2.02;1.57;;;20.20;36.30;;;;;;1892296;76;21650;-63
2022/04/20 02:22:25;;;;;;;2.80;1.70;;;20.10;36.30;;;;;;1892026;75;21094;-63
2022/04/20 02:24:52;;;;;;;2.12;1.70;;;20.20;36.20;;;;;;1892236;75;21094;-63
2022/04/20 02:27:20;;;;;;;2.00;1.72;;;20.20;36.20;;;;;;1892251;76;21121;-63
2022/04/20 02:29:47;;;;;;;2.37;1.85;;;20.20;36.00;;;;;;1892414;76;21113;-63
2022/04/20 02:32:14;;;;;;;2.30;1.87;;;20.20;36.10;;;;;;1892378;76;21122;-63
2022/04/20 02:34:42;;;;;;;2.95;2.05;;;20.20;36.00;;;;;;1892554;76;21171;-64
2022/04/20 02:37:09;;;;;;;2.40;1.60;;;20.20;36.10;;;;;;1892778;76;21164;-63
2022/04/20 02:39:37;;;;;;;1.80;1.52;;;20.10;35.90;;;;;;1892548;76;21556;-63
2022/04/20 02:42:06;;;;;;;2.83;1.87;;;20.10;36.40;;;;;;1892040;76;21105;-63
2022/04/20 02:44:33;;;;;;;11.28;3.90;;;20.10;35.90;;;;;;1891931;76;21083;-63
2022/04/20 02:47:01;;;;;;;2.20;1.75;;;20.10;35.90;;;;;;1891989;76;21133;-63
2022/04/20 02:49:28;;;;;;;2.95;1.80;;;20.10;36.00;;;;;;1892503;76;21662;-63
2022/04/20 02:51:55;;;;;;;3.30;1.50;;;20.10;35.90;;;;;;1892308;76;21118;-63
2022/04/20 02:54:23;;;;;;;1.87;1.62;;;20.10;35.90;;;;;;1892440;76;21572;-63
2022/04/20 02:56:50;;;;;;;3.60;1.85;;;20.10;35.90;;;;;;1892230;76;21219;-63
2022/04/20 02:59:17;;;;;;;2.85;1.70;;;20.10;35.80;;;;;;1892392;76;21686;-63
2022/04/20 03:01:44;;;;;;;2.30;1.82;;;20.10;35.90;;;;;;1892179;76;21184;-63
2022/04/20 03:04:12;;;;;;;3.45;2.22;;;20.10;35.90;;;;;;1892553;76;21630;-63
2022/04/20 03:06:40;;;;;;;3.20;1.60;;;20.10;35.90;;;;;;1892323;76;21644;-63
2022/04/20 03:09:07;;;;;;;2.12;1.50;;;20.10;35.80;;;;;;1892133;76;21159;-63
2022/04/20 03:11:34;;;;;;;2.45;1.62;;;20.10;35.80;;;;;;1892251;76;22311;-63
2022/04/20 03:14:01;;;;;;;2.60;1.60;;;20.10;35.90;;;;;;1892007;76;21122;-63
2022/04/20 03:16:29;;;;;;;1.95;1.60;;;20.10;35.80;;;;;;1892074;76;22257;-63
2022/04/20 03:18:56;;;;;;;2.20;1.72;;;20.10;35.70;;;;;;1892216;76;21129;-63
2022/04/20 03:21:23;;;;;;;1.60;1.50;;;20.10;35.80;;;;;;1892430;76;21505;-63
2022/04/20 03:23:51;;;;;;;2.95;2.02;;;20.10;35.70;;;;;;1891991;76;21118;-63
2022/04/20 03:26:18;;;;;;;3.45;1.98;;;20.10;35.80;;;;;;1892143;76;21486;-63
2022/04/20 03:28:45;;;;;;;5.85;2.20;;;20.10;35.70;;;;;;1891904;76;21105;-63
2022/04/20 03:31:13;;;;;;;2.60;2.02;;;20.10;35.70;;;;;;1891963;76;21568;-63
2022/04/20 03:33:40;;;;;;;2.22;1.95;;;20.00;35.70;;;;;;1899588;74;21524;-63
2022/04/20 03:36:08;;;;;;;3.20;2.17;;;20.10;35.60;;;;;;1904282;75;21199;-63
2022/04/20 03:38:36;;;;;;;2.75;1.85;;;20.00;35.60;;;;;;1904003;75;21361;-64
2022/04/20 03:41:04;;;;;;;1.67;1.57;;;20.10;35.70;;;;;;1904119;75;21199;-63
2022/04/20 03:43:32;;;;;;;3.55;1.87;;;20.00;35.60;;;;;;1904312;75;21144;-63
2022/04/20 03:45:59;;;;;;;2.33;1.75;;;20.10;35.70;;;;;;1904317;75;21097;-63
2022/04/20 03:48:27;;;;;;;3.12;2.10;;;20.00;36.20;;;;;;1904881;75;21085;-64
2022/04/20 03:50:54;;;;;;;2.55;2.15;;;20.00;35.60;;;;;;1904643;75;21120;-63
2022/04/20 03:53:21;;;;;;;5.03;2.00;;;20.00;35.70;;;;;;1904298;75;21136;-65
2022/04/20 03:55:48;;;;;;;3.35;1.85;;;20.00;35.50;;;;;;1904032;75;21053;-63
2022/04/20 03:58:16;;;;;;;2.08;1.70;;;20.00;36.10;;;;;;1904813;75;21093;-63
2022/04/20 04:00:43;;;;;;;4.37;2.15;;;20.00;35.60;;;;;;1904725;75;21360;-63
2022/04/20 04:03:11;;;;;;;3.52;2.22;;;20.00;35.60;;;;;;1904993;75;21137;-63
2022/04/20 04:05:40;;;;;;;4.55;2.02;;;20.00;35.50;;;;;;1905141;75;21124;-63
2022/04/20 04:08:08;;;;;;;3.62;2.40;;;20.00;35.50;;;;;;1904942;75;21648;-63
2022/04/20 04:10:35;;;;;;;3.92;2.22;;;20.00;35.40;;;;;;1904698;75;21073;-63
2022/04/20 04:13:02;;;;;;;2.17;1.77;;;20.00;35.40;;;;;;1904867;75;21584;-62
2022/04/20 04:15:29;;;;;;;4.15;2.02;;;20.00;35.50;;;;;;1904662;75;21093;-63
2022/04/20 04:17:59;;;;;;;3.50;2.12;;;20.00;35.50;;;;;;1904546;75;21078;-62
2022/04/20 04:20:27;;;;;;;3.67;2.30;;;20.00;35.50;;;;;;1904557;75;21191;-63
2022/04/20 04:22:54;;;;;;;2.75;1.82;;;20.00;35.50;;;;;;1904496;75;21125;-63
2022/04/20 04:25:22;;;;;;;3.92;1.80;;;20.00;35.50;;;;;;1904923;75;21132;-63
2022/04/20 04:27:49;;;;;;;3.20;2.00;;;20.00;35.60;;;;;;1904407;75;21579;-63
2022/04/20 04:30:17;;;;;;;3.90;2.62;;;20.00;35.50;;;;;;1904445;75;21137;-64
2022/04/20 04:32:44;;;;;;;4.47;2.40;;;20.00;35.70;;;;;;1904487;75;21207;-64
2022/04/20 04:35:11;;;;;;;2.62;2.10;;;20.00;35.50;;;;;;1893199;75;21106;-63
2022/04/20 04:37:39;;;;;;;2.72;2.05;;;20.00;35.50;;;;;;1892407;76;21090;-62
2022/04/20 04:40:07;;;;;;;2.75;1.90;;;20.00;35.60;;;;;;1892537;76;21144;-63
2022/04/20 04:42:34;;;;;;;3.55;1.80;;;20.00;35.60;;;;;;1892378;76;21692;-63
2022/04/20 04:50:33;;;;;;;5.50;2.52;;;20.00;35.40;;;;;;1892511;76;21177;-61
2022/04/20 04:53:02;;;;;;;4.80;2.15;;;20.00;35.50;;;;;;1892516;76;21169;-62
2022/04/20 04:55:29;;;;;;;3.90;2.02;;;20.00;35.40;;;;;;1892544;76;22100;-61
2022/04/20 04:57:57;;;;;;;2.30;1.90;;;20.00;35.30;;;;;;1892363;76;21503;-61
2022/04/20 05:00:25;;;;;;;4.83;2.12;;;20.00;35.40;;;;;;1892179;76;21179;-61
2022/04/20 05:02:52;;;;;;;2.92;2.25;;;20.00;35.40;;;;;;1892586;76;21188;-61
2022/04/20 05:05:19;;;;;;;3.67;2.27;;;20.00;35.40;;;;;;1892780;76;21552;-62
2022/04/20 05:07:47;;;;;;;3.08;2.15;;;20.00;35.40;;;;;;1892699;76;21559;-62
2022/04/20 05:10:14;;;;;;;2.77;2.33;;;20.00;35.50;;;;;;1892533;76;21067;-63
2022/04/20 05:12:41;;;;;;;3.00;1.85;;;20.00;35.40;;;;;;1892452;76;22291;-61
2022/04/20 05:15:09;;;;;;;4.12;2.20;;;20.00;35.40;;;;;;1892435;76;21059;-61
2022/04/20 05:17:36;;;;;;;2.92;2.22;;;20.00;35.40;;;;;;1892716;76;21062;-61
2022/04/20 05:20:04;;;;;;;5.42;2.62;;;20.00;35.50;;;;;;1892365;76;21685;-62
2022/04/20 05:22:31;;;;;;;5.00;2.40;;;20.00;35.40;;;;;;1892550;76;21121;-61
2022/04/20 05:24:59;;;;;;;4.28;2.50;;;20.00;35.40;;;;;;1892782;75;21112;-62
2022/04/20 05:27:26;;;;;;;4.85;2.35;;;20.00;35.80;;;;;;1892620;76;21113;-62
2022/04/20 05:29:53;;;;;;;3.67;2.27;;;20.00;35.30;;;;;;1892291;76;21176;-62
2022/04/20 05:32:21;;;;;;;3.80;2.52;;;20.00;35.30;;;;;;1892514;76;21212;-62
2022/04/20 05:34:48;;;;;;;5.58;2.17;;;20.10;35.30;;;;;;1877884;76;21208;-61
2022/04/20 05:42:46;;;;;;;4.00;2.20;;;20.10;35.40;;;;;;1866803;77;21208;-62
2022/04/20 05:45:14;;;;;;;4.00;1.98;;;20.10;35.40;;;;;;1866912;77;21111;-62
2022/04/20 05:47:41;;;;;;;4.40;2.30;;;20.10;35.90;;;;;;1866987;77;21157;-62
2022/04/20 05:50:09;;;;;;;5.45;2.20;;;20.10;35.30;;;;;;1866782;77;21111;-61
2022/04/20 05:52:36;;;;;;;3.17;2.10;;;20.10;35.90;;;;;;1866753;77;21107;-61
2022/04/20 05:55:04;;;;;;;3.33;2.20;;;20.00;35.30;;;;;;1867019;77;21114;-61
2022/04/20 05:57:33;;;;;;;3.02;2.42;;;20.10;35.50;;;;;;1866905;77;21119;-62
2022/04/20 06:00:00;;;;;;;3.92;2.42;;;20.10;35.30;;;;;;1867109;77;21613;-61
2022/04/20 06:02:28;;;;;;;3.10;2.30;;;20.10;35.40;;;;;;1866579;77;21142;-61
2022/04/20 06:04:55;;;;;;;5.35;2.67;;;20.10;35.10;;;;;;1866219;76;21123;-62
2022/04/20 06:07:22;;;;;;;11.35;2.92;;;20.10;35.30;;;;;;1866771;77;21409;-61
2022/04/20 06:09:50;;;;;;;3.37;2.12;;;20.00;35.00;;;;;;1867140;77;21119;-62
2022/04/20 06:12:17;;;;;;;5.25;2.50;;;20.00;35.20;;;;;;1866929;77;21100;-65
2022/04/20 06:14:44;;;;;;;4.45;2.33;;;20.00;35.10;;;;;;1866325;77;21189;-62
2022/04/20 06:17:12;;;;;;;5.70;2.80;;;20.00;35.20;;;;;;1866815;76;21299;-62
2022/04/20 06:19:39;;;;;;;3.85;2.47;;;20.00;35.10;;;;;;1870865;75;21095;-63
2022/04/20 06:22:06;;;;;;;6.25;3.22;;;20.00;35.10;;;;;;1875327;75;21099;-63
2022/04/20 06:24:33;;;;;;;7.58;3.12;;;20.00;33.40;;;;;;1874138;75;21196;-62
2022/04/20 06:27:02;;;;;;;5.83;3.27;;;19.70;32.50;;;;;;1899148;75;21110;-62
2022/04/20 06:29:29;;;;;;;6.33;3.20;;;19.70;34.20;;;;;;1889392;75;21467;-61
2022/04/20 06:31:56;;;;;;;7.87;2.98;;;19.80;35.00;;;;;;1865228;77;21099;-63
2022/04/20 06:34:24;;;;;;;11.40;2.72;;;19.90;35.10;;;;;;1865566;77;21210;-63
2022/04/20 06:36:51;;;;;;;10.93;2.65;;;19.90;35.00;;;;;;1868578;75;21222;-62
2022/04/20 06:39:18;;;;;;;8.60;2.85;;;20.00;34.80;;;;;;1880221;75;21191;-64
2022/04/20 06:41:45;;;;;;;14.25;2.60;;;20.00;34.80;;;;;;1867002;75;21236;-63
2022/04/20 06:44:13;;;;;;;7.45;3.10;;;20.00;34.90;;;;;;1865712;77;21201;-63
2022/04/20 06:46:40;;;;;;;6.15;2.45;;;20.00;35.20;;;;;;1886437;75;21035;-63
2022/04/20 06:49:07;;;;;;;6.75;2.67;;;20.00;35.30;;;;;;1899166;75;21116;-63
2022/04/20 06:59:34;;;;;;;3.52;2.60;;;20.00;36.20;;;;;;1866637;77;21081;-62
2022/04/20 07:02:01;;;;;;;4.60;2.87;;;20.00;36.30;;;;;;1866536;77;21546;-62
2022/04/20 07:04:29;;;;;;;4.00;2.58;;;20.00;36.10;;;;;;1866973;77;21106;-62
2022/04/20 07:06:56;;;;;;;9.00;3.27;;;20.00;36.10;;;;;;1867111;77;21059;-63
2022/04/20 07:09:24;;;;;;;4.87;2.60;;;20.00;36.00;;;;;;1870695;75;21452;-62
2022/04/20 07:11:51;;;;;;;3.87;2.72;;;20.00;36.10;;;;;;1866785;77;21090;-62
2022/04/20 07:14:18;;;;;;;7.12;2.60;;;19.90;36.00;;;;;;1881271;75;22205;-62
2022/04/20 07:16:46;;;;;;;4.45;2.52;;;20.00;36.00;;;;;;1898897;75;21110;-61
2022/04/20 07:19:13;;;;;;;4.37;2.30;;;20.00;36.00;;;;;;1898522;75;21439;-62
2022/04/20 07:21:40;;;;;;;7.08;3.08;;;20.00;35.30;;;;;;1898381;75;21134;-62
2022/04/20 07:24:08;;;;;;;8.48;3.00;;;19.90;35.00;;;;;;1897772;75;21664;-61
2022/04/20 07:26:35;;;;;;;7.30;2.58;;;19.80;35.00;;;;;;1898799;75;21098;-63
2022/04/20 07:29:02;;;;;;;8.03;2.60;;;19.80;34.90;;;;;;1899138;75;21507;-62
2022/04/20 07:31:30;;;;;;;9.65;3.05;;;19.80;34.90;;;;;;1898960;75;21106;-62
2022/04/20 07:33:58;;;;;;;10.95;3.55;;;19.70;34.80;;;;;;1898729;75;21578;-63
2022/04/20 07:36:25;;;;;;;4.40;2.98;;;19.70;34.70;;;;;;1898700;75;21615;-62
2022/04/20 07:38:52;;;;;;;8.15;2.85;;;19.70;35.00;;;;;;1898842;75;21067;-62
2022/04/20 07:41:19;;;;;;;9.33;2.70;;;19.80;34.90;;;;;;1898959;75;21628;-62
2022/04/20 07:43:47;;;;;;;5.03;2.83;;;19.80;34.40;;;;;;1899078;75;21095;-62
2022/04/20 07:46:17;;;;;;;14.45;3.25;;;19.60;34.00;;;;;;1898942;75;21082;-63
2022/04/20 07:48:44;;;;;;;6.92;2.50;;;19.60;34.90;;;;;;1899086;75;21225;-63
2022/04/20 07:51:13;;;;;;;8.00;2.87;;;19.80;35.20;;;;;;1899154;75;21165;-62
2022/04/20 07:53:40;;;;;;;5.30;2.80;;;19.80;35.00;;;;;;1899285;75;21196;-62
2022/04/20 07:56:07;;;;;;;13.38;2.70;;;19.90;35.10;;;;;;1899165;75;21148;-62
2022/04/20 07:58:35;;;;;;;8.13;2.98;;;19.90;35.00;;;;;;1899038;75;21067;-62
2022/04/20 08:01:02;;;;;;;6.97;2.50;;;20.00;35.10;;;;;;1899115;75;21180;-62
2022/04/20 08:03:29;;;;;;;3.92;2.58;;;20.00;35.00;;;;;;1898955;75;21632;-62
2022/04/20 08:05:59;;;;;;;4.72;2.30;;;20.00;34.90;;;;;;1899036;75;21126;-62
2022/04/20 08:08:26;;;;;;;7.03;2.70;;;20.10;34.90;;;;;;1899271;75;21636;-63
2022/04/20 08:10:53;;;;;;;4.67;2.83;;;20.10;34.80;;;;;;1898038;75;21098;-63
2022/04/20 08:16:06;;;;;;;3.12;2.42;;;20.20;34.90;;;;;;1896689;75;21162;-63
2022/04/20 08:18:33;;;;;;;9.70;2.80;;;20.20;35.00;;;;;;1888543;75;21140;-64
2022/04/20 08:21:01;;;;;;;6.42;3.10;;;20.20;35.00;;;;;;1899281;75;21122;-63
2022/04/20 08:23:31;;;;;;;4.83;2.62;;;20.20;35.10;;;;;;1866962;76;21208;-62
2022/04/20 08:25:57;;;;;;;8.58;2.98;;;20.20;35.00;;;;;;1866907;77;21091;-64
2022/04/20 08:28:24;;;;;;;5.42;2.52;;;20.20;35.00;;;;;;1866748;76;21631;-64
2022/04/20 08:30:52;;;;;;;4.60;2.37;;;20.30;35.10;;;;;;1889685;75;21102;-63
2022/04/20 08:33:21;;;;;;;4.05;2.00;;;20.30;35.10;;;;;;1871179;75;21261;-64
2022/04/20 08:35:48;;;;;;;5.15;2.55;;;20.30;35.10;;;;;;1866752;76;21234;-62
2022/04/20 08:38:16;;;;;;;4.65;2.27;;;20.30;35.10;;;;;;1892314;75;21087;-62
2022/04/20 08:40:43;;;;;;;2.70;2.10;;;20.30;35.10;;;;;;1899002;75;21643;-62
2022/04/20 08:43:10;;;;;;;4.42;2.67;;;20.30;35.00;;;;;;1898847;75;21126;-63
2022/04/20 08:45:38;;;;;;;3.65;2.30;;;20.30;35.10;;;;;;1898401;75;21530;-63
2022/04/20 08:48:06;;;;;;;7.03;2.40;;;20.30;35.10;;;;;;1853982;76;21185;-63
2022/04/20 08:50:34;;;;;;;3.90;2.40;;;20.30;35.20;;;;;;1866911;77;21118;-63
2022/04/20 08:53:01;;;;;;;3.45;2.08;;;20.40;35.20;;;;;;1884746;75;21083;-63
2022/04/20 08:55:28;;;;;;;4.72;2.42;;;20.30;35.20;;;;;;1899016;75;21184;-63
2022/04/20 08:57:56;;;;;;;5.05;2.25;;;20.40;35.20;;;;;;1883497;75;21189;-63
2022/04/20 09:00:26;;;;;;;5.58;2.75;;;20.30;35.10;;;;;;1867157;77;22133;-63
2022/04/20 09:02:56;;;;;;;6.53;2.27;;;20.40;35.20;;;;;;1885000;75;21565;-63
2022/04/20 09:05:32;;;;;;;4.40;2.60;;;20.40;35.20;;;;;;1909214;75;21638;-63
2022/04/20 09:10:48;;;;;;;3.37;2.15;;;20.40;35.20;;;;;;1905386;74;21591;-63
2022/04/20 09:13:15;;;;;;;4.62;2.00;;;20.40;35.20;;;;;;1908853;74;21112;-63
2022/04/20 09:15:43;;;;;;;3.25;2.15;;;20.40;35.20;;;;;;1899148;75;22160;-63
2022/04/20 09:18:11;;;;;;;5.90;2.25;;;20.40;35.20;;;;;;1891177;75;21146;-64
2022/04/20 09:20:39;;;;;;;4.70;2.10;;;20.50;35.20;;;;;;1877748;75;21177;-64
2022/04/20 09:23:12;;;;;;;3.10;1.92;;;20.50;35.10;;;;;;1888892;75;21235;-63
2022/04/20 09:25:41;;;;;;;3.47;2.20;;;20.50;35.20;;;;;;1910338;74;21114;-61
2022/04/20 09:28:08;;;;;;;3.50;2.00;;;20.50;35.20;;;;;;1899312;74;21093;-62
2022/04/20 09:30:40;;;;;;;2.72;2.22;;;20.50;35.30;;;;;;1877207;76;21175;-62
2022/04/20 09:33:09;;;;;;;2.83;2.00;;;20.50;35.20;;;;;;1877198;75;21118;-62
2022/04/20 09:35:47;;;;;;;3.10;2.20;;;20.50;35.20;;;;;;1877285;76;21126;-62
2022/04/20 09:38:16;;;;;;;3.58;2.10;;;20.50;35.20;;;;;;1877456;75;21141;-62
2022/04/20 09:40:43;;;;;;;6.17;1.98;;;20.60;35.20;;;;;;1876826;75;21180;-61
2022/04/20 09:43:16;;;;;;;3.15;2.42;;;20.50;32.50;;;;;;1876577;75;21149;-62
2022/04/20 09:45:43;;;;;;;3.22;2.67;;;19.90;28.90;;;;;;1875403;74;21126;-61
2022/04/20 09:51:12;;;;;;;4.95;3.10;;;18.90;28.40;;;;;;1877305;75;21157;-62
2022/04/20 09:53:40;;;;;;;4.08;2.40;;;18.70;28.70;;;;;;1877520;76;21595;-62
2022/04/20 09:56:29;;;;;;;4.25;2.75;;;18.60;28.20;;;;;;1877322;75;21208;-62
2022/04/20 09:59:02;;;;;;;5.70;3.00;;;18.50;28.00;;;;;;1876549;75;21147;-62
2022/04/20 10:01:35;;;;;;;4.87;2.75;;;18.50;28.30;;;;;;1877675;76;21113;-62
2022/04/20 10:04:03;;;;;;;5.70;3.10;;;18.40;27.90;;;;;;1877861;76;21082;-62
2022/04/20 10:06:31;;;;;;;5.80;3.45;;;18.30;28.10;;;;;;1877929;75;21179;-61
2022/04/20 10:08:58;;;;;;;7.83;3.17;;;18.20;27.70;;;;;;1877814;75;21630;-62
2022/04/20 10:11:26;;;;;;;8.15;2.92;;;18.20;27.90;;;;;;1879816;76;21092;-61
2022/04/20 10:16:48;;;;;;;4.00;2.70;;;18.30;28.30;;;;;;1880628;74;21126;-61
2022/04/20 10:19:16;;;;;;;8.43;3.27;;;18.70;28.60;;;;;;1900254;74;21741;-61
2022/04/20 10:21:46;;;;;;;8.35;2.65;;;19.00;28.50;;;;;;1896903;75;21437;-61
2022/04/20 10:24:18;;;;;;;10.28;2.75;;;19.30;28.80;;;;;;1897260;75;21148;-62
2022/04/20 10:26:45;;;;;;;5.40;3.10;;;19.50;28.90;;;;;;1897679;75;21241;-62
2022/04/20 10:29:19;;;;;;;3.60;2.62;;;19.60;28.80;;;;;;1898000;75;21173;-62
2022/04/20 10:32:02;;;;;;;6.00;2.72;;;19.80;29.50;;;;;;1892038;75;21189;-61
2022/04/20 10:34:52;;;;;;;3.35;2.52;;;19.90;29.10;;;;;;1898368;75;21116;-62
2022/04/20 10:37:25;;;;;;;3.58;2.37;;;19.90;29.40;;;;;;1852208;77;21119;-61
2022/04/20 10:39:52;;;;;;;6.72;2.67;;;20.00;29.50;;;;;;1851245;76;21201;-60
2022/04/20 10:42:20;;;;;;;4.28;2.33;;;20.10;29.70;;;;;;1851766;77;21135;-61
2022/04/20 10:44:54;;;;;;;4.78;2.70;;;20.10;29.80;;;;;;1850306;77;21553;-61
2022/04/20 10:47:30;;;;;;;5.40;2.87;;;20.20;30.00;;;;;;1849698;77;21161;-61
2022/04/20 10:50:23;;;;;;;3.25;2.22;;;20.20;30.10;;;;;;1850430;77;21148;-61
2022/04/20 10:53:04;;;;;;;2.55;2.30;;;20.20;30.20;;;;;;1850315;76;21576;-62
2022/04/20 10:55:38;;;;;;;5.00;1.98;;;20.30;30.40;;;;;;1850449;77;21156;-61
2022/04/20 10:58:07;;;;;;;2.77;1.95;;;20.30;30.60;;;;;;1850238;77;21216;-61
2022/04/20 11:00:36;;;;;;;5.37;2.33;;;20.30;30.70;;;;;;1819374;77;21082;-61
2022/04/20 11:03:05;;;;;;;3.87;2.00;;;20.30;30.70;;;;;;1850139;76;21235;-61
2022/04/20 11:05:33;;;;;;;5.30;2.02;;;20.30;30.80;;;;;;1850209;77;21753;-62
2022/04/20 11:08:17;;;;;;;8.48;1.92;;;20.30;31.00;;;;;;1849989;77;21198;-62
2022/04/20 11:19:11;;;;;;;7.75;2.52;;;20.40;31.50;;;;;;1849073;77;21101;-62
2022/04/20 11:21:40;;;;;;;4.67;3.08;;;20.40;31.60;;;;;;1850179;77;21560;-61
2022/04/20 11:24:08;;;;;;;3.92;2.45;;;20.50;31.70;;;;;;1847430;76;21599;-62
2022/04/20 11:26:55;;;;;;;4.35;2.50;;;20.50;31.80;;;;;;1850300;77;21117;-61
2022/04/20 11:29:29;;;;;;;2.12;1.80;;;20.50;31.90;;;;;;1850687;77;21122;-61
2022/04/20 11:32:02;;;;;;;2.87;1.80;;;20.50;32.00;;;;;;1850622;77;21128;-62
2022/04/20 11:34:32;;;;;;;2.62;2.10;;;20.50;32.10;;;;;;1849413;77;21160;-61
2022/04/20 11:37:04;;;;;;;2.92;2.08;;;20.50;32.20;;;;;;1868558;76;21104;-62
2022/04/20 11:39:29;;;;;;;5.75;2.60;;;20.50;32.30;;;;;;1874021;76;21076;-61
2022/04/20 11:41:58;;;;;;;2.83;2.10;;;20.50;32.30;;;;;;1874787;76;21080;-62
2022/04/20 11:46:54;;;;;;;3.70;2.25;;;20.60;32.50;;;;;;1919924;74;22898;-61
2022/04/20 11:49:21;;;;;;;3.37;1.92;;;20.60;32.70;;;;;;1881233;75;21121;-61
2022/04/20 11:52:06;;;;;;;4.22;2.80;;;20.60;32.80;;;;;;1881027;75;21094;-61
2022/04/20 11:54:24;;;;;;;2.98;2.17;;;20.60;32.80;;;;;;1845120;77;21161;-61
2022/04/20 11:56:51;;;;;;;3.20;2.08;;;20.60;32.90;;;;;;1849236;77;21129;-61
2022/04/20 11:59:19;;;;;;;2.90;2.25;;;20.60;33.00;;;;;;1848970;77;21098;-61
2022/04/20 12:01:47;;;;;;;3.50;2.05;;;20.60;33.10;;;;;;1849215;77;21602;-60
2022/04/20 12:04:18;;;;;;;3.72;1.95;;;20.70;33.20;;;;;;1849232;76;21608;-61
2022/04/20 12:06:48;;;;;;;2.55;1.80;;;20.60;33.30;;;;;;1849121;77;21105;-61
2022/04/20 12:09:18;;;;;;;3.37;2.27;;;20.60;33.30;;;;;;1849721;77;21125;-61
2022/04/20 12:11:47;;;;;;;2.42;1.72;;;20.60;33.40;;;;;;1849316;77;21148;-61
2022/04/20 12:14:15;;;;;;;4.03;2.45;;;20.70;33.60;;;;;;1849112;76;21413;-61
2022/04/20 12:16:43;;;;;;;3.40;2.05;;;20.70;33.60;;;;;;1849110;77;21149;-61
2022/04/20 12:19:10;;;;;;;2.52;2.00;;;20.70;33.60;;;;;;1849182;77;21105;-61
2022/04/20 12:21:40;;;;;;;4.40;2.55;;;20.70;33.80;;;;;;1849258;77;21449;-61
2022/04/20 12:24:09;;;;;;;4.45;2.15;;;20.70;33.80;;;;;;1849232;76;21118;-61
2022/04/20 12:26:41;;;;;;;2.15;1.75;;;20.70;33.80;;;;;;1849384;77;21176;-61
2022/04/20 12:29:09;;;;;;;3.58;1.75;;;20.70;34.00;;;;;;1849668;76;21203;-61
2022/04/20 12:31:43;;;;;;;3.17;1.80;;;20.80;34.40;;;;;;1849506;77;21164;-61
2022/04/20 12:34:12;;;;;;;4.33;1.90;;;20.80;34.20;;;;;;1849372;76;21667;-62
2022/04/20 12:37:03;;;;;;;2.35;2.08;;;20.80;34.10;;;;;;1849472;77;21584;-61
2022/04/20 12:39:38;;;;;;;4.22;2.08;;;20.80;34.30;;;;;;1849285;77;21121;-61
2022/04/20 12:42:09;;;;;;;2.62;1.92;;;20.80;34.30;;;;;;1849534;77;21188;-62
2022/04/20 12:44:39;;;;;;;;;;;20.80;34.30;;;;;;1852229;77;21129;-61
2022/04/20 12:47:16;;;;;;;4.33;2.13;;;20.80;34.30;;;;;;1863045;76;20222;-62
2022/04/20 12:49:44;;;;;;;2.42;2.17;;;20.80;34.40;;;;;;1864700;77;21587;-62
2022/04/20 12:52:13;;;;;;;2.27;1.80;;;20.80;34.40;;;;;;1864640;75;21121;-62
2022/04/20 12:54:41;;;;;;;3.22;2.00;;;20.80;34.40;;;;;;1847739;77;21111;-62
2022/04/20 13:03:11;;;;;;;2.12;1.75;;;20.90;34.70;;;;;;1863997;76;21187;-62
2022/04/20 13:05:40;;;;;;;3.22;1.98;;;20.90;34.70;;;;;;1864186;77;21205;-62
2022/04/20 13:08:08;;;;;;;1.87;1.70;;;20.90;34.80;;;;;;1863973;77;21109;-62
2022/04/20 13:10:37;;;;;;;3.17;2.15;;;20.90;34.90;;;;;;1863904;77;21129;-62
2022/04/20 13:13:04;;;;;;;2.10;1.60;;;20.90;34.90;;;;;;1863507;76;21203;-62
2022/04/20 13:15:32;;;;;;;2.70;2.08;;;20.90;35.00;;;;;;1864276;77;21489;-62
2022/04/20 13:17:59;;;;;;;2.72;1.98;;;20.90;35.00;;;;;;1864116;77;21078;-61
2022/04/20 13:20:28;;;;;;;5.20;2.15;;;20.90;35.00;;;;;;1863942;77;21587;-61
2022/04/20 13:22:56;;;;;;;4.00;2.30;;;20.90;35.00;;;;;;1864052;75;21140;-62
2022/04/20 13:28:09;;;;;;;5.40;2.27;;;20.90;35.00;;;;;;1864019;77;21114;-61
2022/04/20 13:30:38;;;;;;;2.52;2.02;;;20.90;35.10;;;;;;1863430;77;21608;-62
2022/04/20 13:33:10;;;;;;;2.12;1.80;;;21.00;35.20;;;;;;1863662;76;21164;-61
2022/04/20 13:35:38;;;;;;;3.08;1.85;;;21.00;35.20;;;;;;1864263;77;21132;-61
2022/04/20 13:38:10;;;;;;;2.30;1.82;;;21.00;35.20;;;;;;1864073;77;21137;-62
2022/04/20 13:40:42;;;;;;;1.98;1.77;;;21.00;35.20;;;;;;1864121;77;21129;-61
2022/04/20 13:43:07;;;;;;;3.08;1.92;;;21.00;35.30;;;;;;1862547;76;21153;-62
2022/04/20 13:45:35;;;;;;;2.92;1.90;;;21.00;35.30;;;;;;1863880;75;21662;-62